createdAt,value
2018-11-20T00:01:53.510Z,19.52
2018-11-20T00:04:43.013Z,20.23
2018-11-20T00:07:48.981Z,21.62
2018-11-20T00:10:37.003Z,17.57
2018-11-20T00:13:25.155Z,21.12
2018-11-20T00:16:06.025Z,18.32
2018-11-20T00:18:44.212Z,21.35
2018-11-20T00:21:25.540Z,22.35
2018-11-20T00:24:16.570Z,20.80
2018-11-20T00:27:13.425Z,21.87
2018-11-20T00:29:56.709Z,21.95
2018-11-20T00:32:44.380Z,17.92
2018-11-20T00:35:32.506Z,21.93
2018-11-20T00:38:19.777Z,22.02
2018-11-20T00:41:17.916Z,20.88
2018-11-20T00:43:54.531Z,20.32
2018-11-20T00:46:51.315Z,25.10
2018-11-20T00:49:44.216Z,20.82
2018-11-20T00:52:30.815Z,22.67
2018-11-20T00:55:10.571Z,21.60
2018-11-20T00:58:05.473Z,22.30
2018-11-20T01:00:50.999Z,20.97
2018-11-20T01:03:40.200Z,20.95
2018-11-20T01:06:21.135Z,18.20
2018-11-20T01:09:14.948Z,21.82
2018-11-20T01:11:56.815Z,20.70
2018-11-20T01:14:32.421Z,21.45
2018-11-20T01:17:20.398Z,21.85
2018-11-20T01:20:11.132Z,19.55
2018-11-20T01:23:02.112Z,21.07
2018-11-20T01:25:47.910Z,20.05
2018-11-20T01:28:34.512Z,20.43
2018-11-20T01:31:20.964Z,21.55
2018-11-20T01:34:02.080Z,19.75
2018-11-20T01:36:49.976Z,20.40
2018-11-20T01:39:33.957Z,18.65
2018-11-20T01:42:32.403Z,19.10
2018-11-20T01:45:12.285Z,16.82
2018-11-20T01:48:09.092Z,20.40
2018-11-20T01:51:02.750Z,18.87
2018-11-20T01:53:55.791Z,20.40
2018-11-20T01:56:43.785Z,20.20
2018-11-20T01:59:33.918Z,21.30
2018-11-20T02:02:18.958Z,19.87
2018-11-20T02:05:07.864Z,20.27
2018-11-20T02:08:02.866Z,20.72
2018-11-20T02:10:43.076Z,22.05
2018-11-20T02:13:57.646Z,20.17
2018-11-20T02:16:45.558Z,16.25
2018-11-20T02:19:30.532Z,20.57
2018-11-20T02:22:14.996Z,19.92
2018-11-20T02:25:06.033Z,19.27
2018-11-20T02:28:05.950Z,20.37
2018-11-20T02:31:00.427Z,20.57
2018-11-20T02:33:38.369Z,20.60
2018-11-20T02:36:16.792Z,19.32
2018-11-20T02:39:20.001Z,18.73
2018-11-20T02:42:06.607Z,20.60
2018-11-20T02:44:53.991Z,20.37
2018-11-20T02:47:56.864Z,19.77
2018-11-20T02:50:36.995Z,20.43
2018-11-20T02:53:23.744Z,19.55
2018-11-20T02:56:15.447Z,19.92
2018-11-20T02:59:01.905Z,19.45
2018-11-20T03:01:44.098Z,19.45
2018-11-20T03:04:32.100Z,20.15
2018-11-20T03:07:12.850Z,20.88
2018-11-20T03:09:59.504Z,18.77
2018-11-20T03:12:53.172Z,19.00
2018-11-20T03:15:32.872Z,13.95
2018-11-20T03:18:19.636Z,20.12
2018-11-20T03:21:05.908Z,19.40
2018-11-20T03:23:51.222Z,19.37
2018-11-20T03:26:33.544Z,20.55
2018-11-20T03:29:39.396Z,18.70
2018-11-20T03:32:39.128Z,18.05
2018-11-20T03:35:27.824Z,15.93
2018-11-20T03:38:06.428Z,19.07
2018-11-20T03:40:55.172Z,20.97
2018-11-20T03:43:41.453Z,20.50
2018-11-20T03:46:29.512Z,19.32
2018-11-20T03:49:26.502Z,20.20
2018-11-20T03:52:27.321Z,16.73
2018-11-20T03:55:10.001Z,20.10
2018-11-20T03:57:51.865Z,17.57
2018-11-20T04:00:38.747Z,18.48
2018-11-20T04:03:25.329Z,17.62
2018-11-20T04:06:22.365Z,20.02
2018-11-20T04:09:10.432Z,20.57
2018-11-20T04:11:54.918Z,18.90
2018-11-20T04:14:41.569Z,21.02
2018-11-20T04:17:24.445Z,20.10
2018-11-20T04:20:11.433Z,20.27
2018-11-20T04:23:01.785Z,18.98
2018-11-20T04:25:49.830Z,17.27
2018-11-20T04:28:52.843Z,18.27
2018-11-20T04:32:15.607Z,17.12
2018-11-20T04:35:23.975Z,18.77
2018-11-20T04:38:10.862Z,15.25
2018-11-20T04:41:06.421Z,17.70
2018-11-20T04:43:51.237Z,19.07
2018-11-20T04:46:50.913Z,17.25
2018-11-20T04:49:35.674Z,20.08
2018-11-20T04:52:22.103Z,20.35
2018-11-20T04:55:04.638Z,18.35
2018-11-20T04:57:57.623Z,19.27
2018-11-20T05:00:44.112Z,16.93
2018-11-20T05:03:30.480Z,19.82
2018-11-20T05:06:16.924Z,19.60
2018-11-20T05:09:19.845Z,18.55
2018-11-20T05:12:06.584Z,19.20
2018-11-20T05:14:53.337Z,18.48
2018-11-20T05:17:40.393Z,17.87
2018-11-20T05:20:34.279Z,18.85
2018-11-20T05:23:20.923Z,19.15
2018-11-20T05:26:08.929Z,17.80
2018-11-20T05:28:52.812Z,20.17
2018-11-20T05:31:39.423Z,20.70
2018-11-20T05:34:19.031Z,19.65
2018-11-20T05:36:57.874Z,19.95
2018-11-20T05:39:44.150Z,21.62
2018-11-20T05:42:32.190Z,19.77
2018-11-20T05:45:19.136Z,20.30
2018-11-20T05:48:13.153Z,20.52
2018-11-20T05:50:59.505Z,20.95
2018-11-20T05:56:36.496Z,22.75
2018-11-20T05:59:36.143Z,21.15
2018-11-20T06:02:23.553Z,20.48
2018-11-20T06:05:10.671Z,22.87
2018-11-20T06:10:45.017Z,17.02
2018-11-20T06:17:08.093Z,22.00
2018-11-20T06:19:55.267Z,18.90
2018-11-20T06:22:42.596Z,23.10
2018-11-20T06:28:01.812Z,24.18
2018-11-20T06:30:55.019Z,21.75
2018-11-20T06:33:40.960Z,24.07
2018-11-20T06:36:31.004Z,23.60
2018-11-20T06:39:18.298Z,24.63
2018-11-20T06:42:04.279Z,22.60
2018-11-20T06:44:44.822Z,23.32
2018-11-20T06:47:26.898Z,19.67
2018-11-20T06:50:12.656Z,24.23
2018-11-20T06:53:02.600Z,23.25
2018-11-20T06:55:57.171Z,25.55
2018-11-20T06:58:42.228Z,23.92
2018-11-20T07:01:18.727Z,25.27
2018-11-20T07:03:57.781Z,23.00
2018-11-20T07:06:54.284Z,25.10
2018-11-20T07:09:44.307Z,22.40
2018-11-20T07:12:37.577Z,22.45
2018-11-20T07:15:23.851Z,22.35
2018-11-20T07:17:58.547Z,23.83
2018-11-20T07:20:39.730Z,22.50
2018-11-20T07:23:28.869Z,21.57
2018-11-20T07:26:21.300Z,21.75
2018-11-20T07:28:58.019Z,21.02
2018-11-20T07:31:57.284Z,22.55
2018-11-20T07:34:43.203Z,22.58
2018-11-20T07:37:25.891Z,25.57
2018-11-20T07:40:18.726Z,19.37
2018-11-20T07:43:04.693Z,21.80
2018-11-20T07:45:54.645Z,21.90
2018-11-20T07:49:00.302Z,21.17
2018-11-20T07:52:02.713Z,23.22
2018-11-20T07:54:48.611Z,22.17
2018-11-20T07:57:44.847Z,20.75
2018-11-20T08:00:24.260Z,21.30
2018-11-20T08:03:10.138Z,21.17
2018-11-20T08:05:57.337Z,21.68
2018-11-20T08:08:36.019Z,20.45
2018-11-20T08:11:29.410Z,19.57
2018-11-20T08:14:12.209Z,19.90
2018-11-20T08:16:54.349Z,18.50
2018-11-20T08:19:50.523Z,20.43
2018-11-20T08:22:43.651Z,20.50
2018-11-20T08:25:39.956Z,19.27
2018-11-20T08:28:22.725Z,23.10
2018-11-20T08:31:15.720Z,20.50
2018-11-20T08:34:01.212Z,21.45
2018-11-20T08:36:57.209Z,18.52
2018-11-20T08:39:38.917Z,21.75
2018-11-20T08:42:24.887Z,18.52
2018-11-20T08:45:11.900Z,21.68
2018-11-20T08:48:05.315Z,21.73
2018-11-20T08:50:43.950Z,21.02
2018-11-20T08:53:35.865Z,22.98
2018-11-20T08:56:26.827Z,21.65
2018-11-20T08:59:20.039Z,21.17
2018-11-20T09:02:07.465Z,22.77
2018-11-20T09:04:53.059Z,24.27
2018-11-20T09:07:38.919Z,19.90
2018-11-20T09:10:25.081Z,22.15
2018-11-20T09:13:15.371Z,21.20
2018-11-20T09:16:17.743Z,22.87
2018-11-20T09:19:15.278Z,24.43
2018-11-20T09:22:01.104Z,21.75
2018-11-20T09:24:54.726Z,23.55
2018-11-20T09:27:36.700Z,23.30
2018-11-20T09:30:22.850Z,25.60
2018-11-20T09:33:09.882Z,21.85
2018-11-20T09:36:12.105Z,22.95
2018-11-20T09:38:51.731Z,22.32
2018-11-20T09:41:43.229Z,23.52
2018-11-20T09:44:45.172Z,23.57
2018-11-20T09:47:30.623Z,21.95
2018-11-20T09:50:36.334Z,20.20
2018-11-20T09:53:30.357Z,23.83
2018-11-20T09:56:21.165Z,21.17
2018-11-20T09:59:27.238Z,18.10
2018-11-20T10:02:26.332Z,25.82
2018-11-20T10:05:13.555Z,24.10
2018-11-20T10:07:51.665Z,25.05
2018-11-20T10:10:38.865Z,23.18
2018-11-20T10:13:13.928Z,23.95
2018-11-20T10:15:59.662Z,25.32
2018-11-20T10:18:41.663Z,22.87
2018-11-20T10:21:27.393Z,22.58
2018-11-20T10:24:17.719Z,23.87
2018-11-20T10:27:01.747Z,23.20
2018-11-20T10:29:48.331Z,25.20
2018-11-20T10:32:31.352Z,24.40
2018-11-20T10:35:18.776Z,24.10
2018-11-20T10:37:59.543Z,22.30
2018-11-20T10:40:59.034Z,24.87
2018-11-20T10:43:53.163Z,22.13
2018-11-20T10:46:40.915Z,23.45
2018-11-20T10:49:24.045Z,24.95
2018-11-20T10:52:02.546Z,24.02
2018-11-20T10:54:44.299Z,21.82
2018-11-20T10:57:27.745Z,24.90
2018-11-20T11:00:14.973Z,26.20
2018-11-20T11:03:00.707Z,26.48
2018-11-20T11:05:48.141Z,24.27
2018-11-20T11:08:33.884Z,25.45
2018-11-20T11:11:39.537Z,27.15
2018-11-20T11:14:37.519Z,24.27
2018-11-20T11:17:24.760Z,26.00
2018-11-20T11:20:10.749Z,25.90
2018-11-20T11:22:54.549Z,24.87
2018-11-20T11:25:40.463Z,24.72
2018-11-20T11:28:26.491Z,26.30
2018-11-20T11:31:19.749Z,27.07
2018-11-20T11:34:02.856Z,26.40
2018-11-20T11:36:43.394Z,23.85
2018-11-20T11:39:39.490Z,28.30
2018-11-20T11:42:25.513Z,25.43
2018-11-20T11:45:05.490Z,27.15
2018-11-20T11:47:47.900Z,26.73
2018-11-20T11:50:30.030Z,28.42
2018-11-20T11:53:16.380Z,27.22
2018-11-20T11:56:06.221Z,25.25
2018-11-20T11:58:43.083Z,24.10
2018-11-20T12:04:17.176Z,27.60
2018-11-20T12:07:03.144Z,27.00
2018-11-20T12:09:53.369Z,25.68
2018-11-20T12:12:48.877Z,23.90
2018-11-20T12:15:31.915Z,24.18
2018-11-20T12:18:17.527Z,23.77
2018-11-20T12:21:10.679Z,24.32
2018-11-20T12:23:48.341Z,22.58
2018-11-20T12:29:04.787Z,20.43
2018-11-20T12:31:51.978Z,23.20
2018-11-20T12:34:39.229Z,21.60
2018-11-20T12:37:26.416Z,19.80
2018-11-20T12:40:14.588Z,19.62
2018-11-20T12:43:00.941Z,19.65
2018-11-20T12:46:12.948Z,17.42
2018-11-20T12:48:49.855Z,15.83
2018-11-20T12:51:37.173Z,17.67
2018-11-20T12:54:24.538Z,14.73
2018-11-20T12:57:11.821Z,16.62
2018-11-20T12:59:58.987Z,14.95
2018-11-20T13:02:46.284Z,15.30
2018-11-20T13:05:22.892Z,15.50
2018-11-20T13:08:10.197Z,15.75
2018-11-20T13:10:57.438Z,14.10
2018-11-20T13:13:44.767Z,15.13
2018-11-20T13:16:31.952Z,14.40
2018-11-20T13:19:19.482Z,14.90
2018-11-20T13:22:06.904Z,15.85
2018-11-20T13:24:57.921Z,14.93
2018-11-20T13:27:41.470Z,13.70
2018-11-20T13:30:28.913Z,14.65
2018-11-20T13:36:05.651Z,14.50
2018-11-20T13:38:52.848Z,14.65
2018-11-20T13:41:59.861Z,15.55
2018-11-20T13:44:40.127Z,12.40
2018-11-20T13:47:27.433Z,15.03
2018-11-20T13:50:14.630Z,14.93
2018-11-20T13:53:01.960Z,13.20
2018-11-20T13:55:49.139Z,14.15
2018-11-20T13:58:36.450Z,14.78
2018-11-20T14:01:24.729Z,13.88
2018-11-20T14:04:12.098Z,14.20
2018-11-20T14:06:59.235Z,13.78
2018-11-20T14:09:46.521Z,13.68
2018-11-20T14:12:33.686Z,12.60
2018-11-20T14:15:21.263Z,11.05
2018-11-20T14:18:08.266Z,8.03
2018-11-20T14:20:58.281Z,13.83
2018-11-20T14:24:03.929Z,12.98
2018-11-20T14:26:56.645Z,14.18
2018-11-20T14:29:43.884Z,12.60
2018-11-20T14:32:29.649Z,12.80
2018-11-20T14:35:15.631Z,12.30
2018-11-20T14:38:21.211Z,12.10
2018-11-20T14:41:01.013Z,12.95
2018-11-20T14:43:35.664Z,12.30
2018-11-20T14:46:13.229Z,13.85
2018-11-20T14:49:09.640Z,13.10
2018-11-20T14:52:12.095Z,12.68
2018-11-20T14:54:54.286Z,11.90
2018-11-20T14:57:39.911Z,12.18
2018-11-20T15:00:35.708Z,14.20
2018-11-20T15:03:41.012Z,13.40
2018-11-20T15:06:34.309Z,13.50
2018-11-20T15:09:20.406Z,12.40
2018-11-20T15:11:57.275Z,12.25
2018-11-20T15:14:38.215Z,13.60
2018-11-20T15:17:23.832Z,12.82
2018-11-20T15:20:13.772Z,14.40
2018-11-20T15:23:13.113Z,13.85
2018-11-20T15:26:04.015Z,12.60
2018-11-20T15:28:47.456Z,14.03
2018-11-20T15:31:28.160Z,14.10
2018-11-20T15:34:21.713Z,13.68
2018-11-20T15:37:26.758Z,14.85
2018-11-20T15:40:06.507Z,15.03
2018-11-20T15:42:58.229Z,14.38
2018-11-20T15:45:44.663Z,15.93
2018-11-20T15:48:30.431Z,14.25
2018-11-20T15:51:07.078Z,16.15
2018-11-20T15:54:03.014Z,16.42
2018-11-20T15:56:51.139Z,16.10
2018-11-20T15:59:48.169Z,17.37
2018-11-20T16:02:35.462Z,17.60
2018-11-20T16:05:21.378Z,16.15
2018-11-20T16:08:08.957Z,18.95
2018-11-20T16:10:46.445Z,18.57
2018-11-20T16:13:21.672Z,17.95
2018-11-20T16:16:11.714Z,19.92
2018-11-20T16:19:13.849Z,20.65
2018-11-20T16:22:05.898Z,19.75
2018-11-20T16:25:04.221Z,20.43
2018-11-20T16:27:57.162Z,20.43
2018-11-20T16:30:50.346Z,18.45
2018-11-20T16:33:34.771Z,17.50
2018-11-20T16:36:20.489Z,18.45
2018-11-20T16:39:05.971Z,18.35
2018-11-20T16:42:02.272Z,20.10
2018-11-20T16:45:04.566Z,20.57
2018-11-20T16:48:01.101Z,19.30
2018-11-20T16:50:48.766Z,21.50
2018-11-20T16:53:36.107Z,22.90
2018-11-20T16:56:27.601Z,23.87
2018-11-20T16:59:33.160Z,21.27
2018-11-20T17:02:23.107Z,19.82
2018-11-20T17:05:09.148Z,23.57
2018-11-20T17:08:14.277Z,20.85
2018-11-20T17:10:57.042Z,19.37
2018-11-20T17:13:43.216Z,25.20
2018-11-20T17:16:24.063Z,25.72
2018-11-20T17:19:09.783Z,26.33
2018-11-20T17:21:55.782Z,26.23
2018-11-20T17:24:41.671Z,26.75
2018-11-20T17:27:41.006Z,28.75
2018-11-20T17:30:45.180Z,27.60
2018-11-20T17:33:35.033Z,27.32
2018-11-20T17:36:20.854Z,26.07
2018-11-20T17:38:59.806Z,27.93
2018-11-20T17:41:53.258Z,29.27
2018-11-20T17:44:43.955Z,24.92
2018-11-20T17:47:31.343Z,27.50
2018-11-20T17:50:18.663Z,29.23
2018-11-20T17:53:08.623Z,29.23
2018-11-20T17:55:54.462Z,32.50
2018-11-20T17:58:40.186Z,30.35
2018-11-20T18:01:34.000Z,32.70
2018-11-20T18:04:16.949Z,31.02
2018-11-20T18:07:04.507Z,33.53
2018-11-20T18:09:50.673Z,32.28
2018-11-20T18:12:36.734Z,34.00
2018-11-20T18:15:35.913Z,29.65
2018-11-20T18:18:25.093Z,33.70
2018-11-20T18:21:18.032Z,30.10
2018-11-20T18:24:04.454Z,31.52
2018-11-20T18:27:00.367Z,30.32
2018-11-20T18:29:46.571Z,32.67
2018-11-20T18:32:32.293Z,33.75
2018-11-20T18:35:18.629Z,37.73
2018-11-20T18:37:57.750Z,36.53
2018-11-20T18:40:45.003Z,37.78
2018-11-20T18:43:30.804Z,32.00
2018-11-20T18:46:17.254Z,35.25
2018-11-20T18:49:02.683Z,36.77
2018-11-20T18:51:42.655Z,30.43
2018-11-20T18:54:24.475Z,36.45
2018-11-20T18:57:05.007Z,33.30
2018-11-20T18:59:52.200Z,30.72
2018-11-20T19:02:38.637Z,34.67
2018-11-20T19:05:33.408Z,33.90
2018-11-20T19:08:19.340Z,35.50
2018-11-20T19:11:05.544Z,32.75
2018-11-20T19:13:54.325Z,32.38
2018-11-20T19:16:54.555Z,34.40
2018-11-20T19:19:53.863Z,35.80
2018-11-20T19:22:44.274Z,33.92
2018-11-20T19:25:30.148Z,32.80
2018-11-20T19:28:15.183Z,33.13
2018-11-20T19:30:58.912Z,32.65
2018-11-20T19:33:40.247Z,27.02
2018-11-20T19:36:22.649Z,33.15
2018-11-20T19:39:08.307Z,32.50
2018-11-20T19:42:10.594Z,30.62
2018-11-20T19:44:48.709Z,33.28
2018-11-20T19:47:41.764Z,29.15
2018-11-20T19:50:28.147Z,32.42
2018-11-20T19:53:27.223Z,32.28
2018-11-20T19:56:20.234Z,33.73
2018-11-20T19:59:19.731Z,32.93
2018-11-20T20:02:11.888Z,32.33
2018-11-20T20:05:12.501Z,33.48
2018-11-20T20:08:07.111Z,31.52
2018-11-20T20:11:03.180Z,33.25
2018-11-20T20:13:44.082Z,29.60
2018-11-20T20:16:29.836Z,30.45
2018-11-20T20:19:13.372Z,30.05
2018-11-20T20:22:06.762Z,32.23
2018-11-20T20:24:52.879Z,31.90
2018-11-20T20:27:55.036Z,30.05
2018-11-20T20:30:51.907Z,31.33
2018-11-20T20:33:26.052Z,32.45
2018-11-20T20:36:15.783Z,32.70
2018-11-20T20:39:11.880Z,33.48
2018-11-20T20:41:56.736Z,27.42
2018-11-20T20:44:53.140Z,22.48
2018-11-20T20:47:48.424Z,32.23
2018-11-20T20:50:47.894Z,28.67
2018-11-20T20:53:33.889Z,32.33
2018-11-20T20:56:19.926Z,32.60
2018-11-20T20:58:55.638Z,32.55
2018-11-20T21:01:37.876Z,32.35
2018-11-20T21:04:24.259Z,31.87
2018-11-20T21:07:16.041Z,31.17
2018-11-20T21:10:01.926Z,31.07
2018-11-20T21:12:38.212Z,31.00
2018-11-20T21:15:37.169Z,25.30
2018-11-20T21:18:23.463Z,30.40
2018-11-20T21:21:10.132Z,30.25
2018-11-20T21:24:09.028Z,31.20
2018-11-20T21:27:04.915Z,30.88
2018-11-20T21:29:51.178Z,29.75
2018-11-20T21:32:47.201Z,26.60
2018-11-20T21:35:33.325Z,28.75
2018-11-20T21:38:21.870Z,28.65
2018-11-20T21:41:08.161Z,26.05
2018-11-20T21:43:49.033Z,26.25
2018-11-20T21:46:42.360Z,26.20
2018-11-20T21:49:28.096Z,27.05
2018-11-20T21:52:15.160Z,27.90
2018-11-20T21:55:05.070Z,26.52
2018-11-20T21:57:53.274Z,27.00
2018-11-20T22:00:56.095Z,26.40
2018-11-20T22:03:42.319Z,24.95
2018-11-20T22:06:28.243Z,26.15
2018-11-20T22:09:16.360Z,24.23
2018-11-20T22:12:09.165Z,20.27
2018-11-20T22:15:14.598Z,24.10
2018-11-20T22:18:15.278Z,23.20
2018-11-20T22:20:53.137Z,23.65
2018-11-20T22:23:38.976Z,23.98
2018-11-20T22:26:15.203Z,20.62
2018-11-20T22:29:17.397Z,23.65
2018-11-20T22:32:03.244Z,21.93
2018-11-20T22:34:53.440Z,21.07
2018-11-20T22:37:40.939Z,21.15
2018-11-20T22:40:31.292Z,21.73
2018-11-20T22:43:17.443Z,21.23
2018-11-20T22:46:03.249Z,20.10
2018-11-20T22:48:50.834Z,22.95
2018-11-20T22:51:36.915Z,21.97
2018-11-20T22:54:39.731Z,20.52
2018-11-20T22:57:26.298Z,21.37
2018-11-20T23:00:12.160Z,20.77
2018-11-20T23:03:11.693Z,23.35
2018-11-20T23:06:09.868Z,21.42
2018-11-20T23:08:38.128Z,22.52
2018-11-20T23:11:06.623Z,23.02
2018-11-20T23:13:34.867Z,23.15
2018-11-20T23:16:03.028Z,22.35
2018-11-20T23:18:31.217Z,22.90
2018-11-20T23:20:59.310Z,22.10
2018-11-20T23:23:30.682Z,21.45
2018-11-20T23:25:58.867Z,21.93
2018-11-20T23:28:26.912Z,21.42
2018-11-20T23:30:55.182Z,20.35
2018-11-20T23:33:23.372Z,22.22
2018-11-20T23:35:51.428Z,22.07
2018-11-20T23:38:19.476Z,20.90
2018-11-20T23:40:47.632Z,22.52
2018-11-20T23:43:15.666Z,21.85
2018-11-20T23:45:43.734Z,21.95
2018-11-20T23:48:11.850Z,23.22
2018-11-20T23:50:39.964Z,22.45
2018-11-20T23:53:08.006Z,22.00
2018-11-20T23:55:36.153Z,22.02
2018-11-20T23:58:04.179Z,23.27
